Weedville, Pennsylvania
Current Conditions -  °F | °C
As of 4:54 PM on Monday 24 Nov 2014 (Local Time) from KFIG Reporting Station
Few Clouds Few Clouds  
Wind Chill: 65°   Ceiling: Unl
Heat Index: 65°   Visibility: 10mi
Dew Point: 39°   Wind: 16mph
Humidity: 39%   Direction: 220°SW
Pressure: 29.52"   Gusts: 25mph
Location:  41.28°N, 78.49°W
Report Text: KFIG 242154Z AUTO 22014G22KT 10SM FEW070 FEW095 18/04 A2952 RMK AO2 PK WND 23037/2107 SLP992 T01830039
Loading
Personal Weather Stations






























Interactive Weather Map New forecast layout! Learn more

10-Day Weather Forecast

Advertisements
Track Severe Weather on mobile